Saturday, February 06, 2016
07:22 UTC
  |  Log In   |  Register Free
Airport Search:

Bishop International Airport
(KFNT)

FAA data valid effective Dec 10 2015 - Feb 4 2016 (unless otherwise noted).

 
 
 
 
 
 
 
 
 
 
 
 
 
 
Current Aviation Weather for KFNT

Weather Summary


The most recent METAR observation for FNT was updated at: 13:01 UTC
METAR for KFNT is not available. Closest METAR is for KRNP
KFNT  (most recent observation was updatred at 60:65 UTC)
060653Z AUTO 27007KT 10SM OVC100 M02/M07 A3025 RMK AO2 SLP254 T10171072

KRNP  (17.4 nm SE)   (most recent observation was updated at 60:65 UTC)
060655Z AUTO 25004KT 10SM BKN110 M03/M07 A3026 RMK AO2 T10351070

KD95  (21.6 nm SW)   (most recent observation was updated at 60:65 UTC)
060653Z AUTO 28006KT 10SM SCT017 SCT024 OVC031 M02/M05 A3024 RMK AO2 T10201050

TAF for KFNT is not available.
KFNT
060520Z 0606/0706 28006KT P6SM SCT045 OVC100 FM061200 23007KT P6SM BKN050 FM062000 24011KT P6SM SCT050 BKN100 FM070200 20006KT P6SM SCT120

KPTK  (23.0 nm NW)   (most recent observation was updatred at 60:52 UTC)
060520Z 0606/0706 27006KT P6SM SCT045 OVC100 FM061200 22007KT P6SM BKN060 FM061800 23011KT P6SM SCT060 BKN120 FM070000 19006KT P6SM SCT120
GlobalAir.com is loading additional information.
 Current Weather at FNT
30.0 F° (-1.1 C°)

West winds at 9.2 mph
Pressure:
30.26 in
Humidity:
66%
Wind:
West at 9.2 mph
Dew Point:
19.9 F° (-6.7 C°)
Visibility:
10.00 mi
FNT NOAA Radar




Find All Airport Services Find A Hotel Find A Rental Car Find A Golf Course Find A Restaurant $100 Hamburger



Airport Weather Forecast for KFNT

Translated METAR for KFNT (0653 UTC)
METAR:
KFNT 060653Z AUTO 27007KT 10SM OVC100 M02/M07 A3025 RMK AO2 SLP254 T10171072
Conditions at:
KFNT (Bishop Intl, MI) observed 0653 UTC 06 February 2016
Temperature:
-2°C (28.4°F)
Dewpoint:
-7°C (19.4°F) [RH = 68.6]
Pressure:
30.25 inches Hg (1024.4 mb)
pressure at sea level is 254 in Hg
Winds:
from the W (270 degrees) at 8.1 mph (7 knots: 3.6 m/s)
Visibility:
10 mile(s)
Ceiling:
10,000 feet AGL
Clouds:
Overcast Skies at 10,000 feet AGL
Remarks:
site is un-manned
site is automated and HAS a precipitation sensor

Translated TAF for KFNT (Bishop Intl, MI) (0520 UTC)
TAF text:
KFNT 060520Z 0606/0706 28006KT P6SM SCT045 OVC100
Forecast period:
Saturday Feb 06 2016 06:00 UTC - Sunday Feb 07 2016 06:00 UTC
Forecast type:
FROM: standard forecast or significant change
Winds:
from the W (280 degrees) at 6.9 mph (6 knots: 3.1 m/s)
Visibility:
6 or more mile(s) (9.7+ km)
Ceiling:
10,000 feet AGL
Clouds:
Scattered Clouds at 4,500 feet AGL
Overcast Skies at 10,000 feet AGL
Weather:
no significant weather observed at this time
TAF text:
FM061200 23007KT P6SM BKN050
Forecast period:
Saturday Feb 06 2016 12:00 UTC - Saturday Feb 06 2016 20:00 UTC
Forecast type:
FROM: standard forecast or significant change
Winds:
from the SW (230 degrees) at 8.1 mph (7 knots: 3.6 m/s)
Visibility:
6 or more mile(s) (9.7+ km)
Ceiling:
5,000 feet AGL
Clouds:
Broken Cloud Cover at 5,000 feet AGL
Weather:
no significant weather observed at this time
TAF text:
FM062000 24011KT P6SM SCT050 BKN100
Forecast period:
Saturday Feb 06 2016 20:00 UTC - Sunday Feb 07 2016 02:00 UTC
Forecast type:
FROM: standard forecast or significant change
Winds:
from the WSW (240 degrees) at 12.7 mph (11 knots: 5.7 m/s)
Visibility:
6 or more mile(s) (9.7+ km)
Ceiling:
10,000 feet AGL
Clouds:
Scattered Clouds at 5,000 feet AGL
Broken Cloud Cover at 10,000 feet AGL
Weather:
no significant weather observed at this time
TAF text:
FM070200 20006KT P6SM SCT120
Forecast period:
Sunday Feb 07 2016 02:00 UTC - Sunday Feb 07 2016 06:00 UTC
Forecast type:
FROM: standard forecast or significant change
Winds:
from the SSW (200 degrees) at 6.9 mph (6 knots: 3.1 m/s)
Visibility:
6 or more mile(s) (9.7+ km)
Ceiling:
at least 12,000 feet AGL
Clouds:
Scattered Clouds at 12,000 feet AGL
Weather:
no significant weather observed at this time
FBO's on the Field
FBO Company Facility Photos Services Transportation Aviation Fuel Prices: Prices include tax
Catering Weather Repair Courtesy Rental Type 100LL JetA JetA+ MOGAS 8087
 
Avflight Flint

This FBO has not yet been rated
FS:Avfuel
Last Updated: Feb-01
Login to update fuel prices
SS:
Contact Avflight FlintMore FBO Information
 
Add another FBO Facility Photos Catering Weather Repair Courtesy Rental Type 100LL JetA JetA+ MOGAS 8087
Services Transportation Aviation Fuel Prices: Prices include tax


model-print
model-print
model-print
model-print